sensor_id;sensor_type;location;lat;lon;timestamp;P1;durP1;ratioP1;P2;durP2;ratioP2
40599;SDS011;26309;50.924;4.754;2024-02-16T00:02:02;4.80;;;2.75;;
40599;SDS011;26309;50.924;4.754;2024-02-16T00:04:28;6.10;;;2.78;;
40599;SDS011;26309;50.924;4.754;2024-02-16T00:06:53;7.28;;;2.63;;
40599;SDS011;26309;50.924;4.754;2024-02-16T00:09:19;4.63;;;2.60;;
40599;SDS011;26309;50.924;4.754;2024-02-16T00:11:45;4.18;;;2.30;;
40599;SDS011;26309;50.924;4.754;2024-02-16T00:14:13;3.38;;;2.40;;
40599;SDS011;26309;50.924;4.754;2024-02-16T00:16:39;5.93;;;2.72;;
40599;SDS011;26309;50.924;4.754;2024-02-16T00:19:05;5.63;;;2.67;;
40599;SDS011;26309;50.924;4.754;2024-02-16T00:21:31;4.43;;;2.85;;
40599;SDS011;26309;50.924;4.754;2024-02-16T00:23:56;4.85;;;2.50;;
40599;SDS011;26309;50.924;4.754;2024-02-16T00:26:22;3.90;;;2.65;;
40599;SDS011;26309;50.924;4.754;2024-02-16T00:28:48;5.07;;;2.80;;
40599;SDS011;26309;50.924;4.754;2024-02-16T00:31:14;4.47;;;2.85;;
40599;SDS011;26309;50.924;4.754;2024-02-16T00:33:40;3.05;;;2.70;;
40599;SDS011;26309;50.924;4.754;2024-02-16T00:36:06;3.38;;;2.67;;
40599;SDS011;26309;50.924;4.754;2024-02-16T00:38:32;4.47;;;2.40;;
40599;SDS011;26309;50.924;4.754;2024-02-16T00:40:59;4.03;;;2.63;;
40599;SDS011;26309;50.924;4.754;2024-02-16T00:43:25;6.65;;;2.50;;
40599;SDS011;26309;50.924;4.754;2024-02-16T00:45:51;4.15;;;2.53;;
40599;SDS011;26309;50.924;4.754;2024-02-16T00:48:17;3.45;;;2.60;;
40599;SDS011;26309;50.924;4.754;2024-02-16T00:50:44;5.95;;;2.97;;
40599;SDS011;26309;50.924;4.754;2024-02-16T00:53:10;5.28;;;2.60;;
40599;SDS011;26309;50.924;4.754;2024-02-16T00:55:36;3.40;;;2.53;;
40599;SDS011;26309;50.924;4.754;2024-02-16T00:58:02;4.60;;;2.72;;
40599;SDS011;26309;50.924;4.754;2024-02-16T01:00:28;4.03;;;2.88;;
40599;SDS011;26309;50.924;4.754;2024-02-16T01:02:55;2.78;;;2.45;;
40599;SDS011;26309;50.924;4.754;2024-02-16T01:05:20;4.70;;;2.78;;
40599;SDS011;26309;50.924;4.754;2024-02-16T01:07:48;2.40;;;2.20;;
40599;SDS011;26309;50.924;4.754;2024-02-16T01:10:14;3.90;;;2.80;;
40599;SDS011;26309;50.924;4.754;2024-02-16T01:12:39;6.78;;;2.97;;
40599;SDS011;26309;50.924;4.754;2024-02-16T01:15:05;3.60;;;2.47;;
40599;SDS011;26309;50.924;4.754;2024-02-16T01:17:32;5.20;;;2.83;;
40599;SDS011;26309;50.924;4.754;2024-02-16T01:19:58;4.40;;;2.92;;
40599;SDS011;26309;50.924;4.754;2024-02-16T01:22:24;4.72;;;2.90;;
40599;SDS011;26309;50.924;4.754;2024-02-16T01:24:49;4.00;;;2.40;;
40599;SDS011;26309;50.924;4.754;2024-02-16T01:27:16;4.60;;;2.72;;
40599;SDS011;26309;50.924;4.754;2024-02-16T01:29:41;5.30;;;3.10;;
40599;SDS011;26309;50.924;4.754;2024-02-16T01:32:08;3.67;;;2.70;;
40599;SDS011;26309;50.924;4.754;2024-02-16T01:34:34;4.97;;;2.60;;
40599;SDS011;26309;50.924;4.754;2024-02-16T01:37:00;3.97;;;2.70;;
40599;SDS011;26309;50.924;4.754;2024-02-16T01:39:26;5.70;;;2.85;;
40599;SDS011;26309;50.924;4.754;2024-02-16T01:41:52;4.95;;;2.60;;
40599;SDS011;26309;50.924;4.754;2024-02-16T01:44:18;5.45;;;2.97;;
40599;SDS011;26309;50.924;4.754;2024-02-16T01:46:43;4.60;;;2.33;;
40599;SDS011;26309;50.924;4.754;2024-02-16T01:49:10;5.20;;;3.10;;
40599;SDS011;26309;50.924;4.754;2024-02-16T01:51:37;4.47;;;2.75;;
40599;SDS011;26309;50.924;4.754;2024-02-16T01:54:02;4.47;;;2.85;;
40599;SDS011;26309;50.924;4.754;2024-02-16T01:56:29;3.33;;;2.33;;
40599;SDS011;26309;50.924;4.754;2024-02-16T01:58:54;5.95;;;2.72;;
40599;SDS011;26309;50.924;4.754;2024-02-16T02:01:20;3.45;;;2.78;;
40599;SDS011;26309;50.924;4.754;2024-02-16T02:03:46;6.15;;;2.75;;
40599;SDS011;26309;50.924;4.754;2024-02-16T02:06:12;4.32;;;2.60;;
40599;SDS011;26309;50.924;4.754;2024-02-16T02:08:38;5.30;;;2.97;;
40599;SDS011;26309;50.924;4.754;2024-02-16T02:11:04;3.42;;;2.63;;
40599;SDS011;26309;50.924;4.754;2024-02-16T02:13:30;11.05;;;2.83;;
40599;SDS011;26309;50.924;4.754;2024-02-16T02:15:57;5.10;;;2.80;;
40599;SDS011;26309;50.924;4.754;2024-02-16T02:18:24;3.33;;;2.83;;
40599;SDS011;26309;50.924;4.754;2024-02-16T02:20:50;6.95;;;3.05;;
40599;SDS011;26309;50.924;4.754;2024-02-16T02:23:16;3.78;;;2.90;;
40599;SDS011;26309;50.924;4.754;2024-02-16T02:25:42;6.00;;;2.60;;
40599;SDS011;26309;50.924;4.754;2024-02-16T02:28:07;5.45;;;2.97;;
40599;SDS011;26309;50.924;4.754;2024-02-16T02:30:33;4.22;;;2.38;;
40599;SDS011;26309;50.924;4.754;2024-02-16T02:32:59;6.50;;;3.00;;
40599;SDS011;26309;50.924;4.754;2024-02-16T02:35:25;4.05;;;2.83;;
40599;SDS011;26309;50.924;4.754;2024-02-16T02:37:51;7.18;;;3.47;;
40599;SDS011;26309;50.924;4.754;2024-02-16T02:40:17;2.97;;;2.45;;
40599;SDS011;26309;50.924;4.754;2024-02-16T02:42:43;5.20;;;3.20;;
40599;SDS011;26309;50.924;4.754;2024-02-16T02:45:09;4.30;;;2.90;;
40599;SDS011;26309;50.924;4.754;2024-02-16T02:47:36;4.85;;;2.80;;
40599;SDS011;26309;50.924;4.754;2024-02-16T02:50:02;3.90;;;2.90;;
40599;SDS011;26309;50.924;4.754;2024-02-16T02:52:29;5.65;;;2.90;;
40599;SDS011;26309;50.924;4.754;2024-02-16T02:54:55;3.53;;;2.70;;
40599;SDS011;26309;50.924;4.754;2024-02-16T02:57:21;6.57;;;3.25;;
40599;SDS011;26309;50.924;4.754;2024-02-16T02:59:47;5.50;;;3.03;;
40599;SDS011;26309;50.924;4.754;2024-02-16T03:02:12;4.45;;;2.65;;
40599;SDS011;26309;50.924;4.754;2024-02-16T03:04:38;4.30;;;2.63;;
40599;SDS011;26309;50.924;4.754;2024-02-16T03:07:04;5.72;;;2.97;;
40599;SDS011;26309;50.924;4.754;2024-02-16T03:09:30;4.18;;;2.72;;
40599;SDS011;26309;50.924;4.754;2024-02-16T03:11:57;5.60;;;3.10;;
40599;SDS011;26309;50.924;4.754;2024-02-16T03:14:22;6.97;;;3.00;;
40599;SDS011;26309;50.924;4.754;2024-02-16T03:16:48;4.20;;;3.10;;
40599;SDS011;26309;50.924;4.754;2024-02-16T03:19:14;4.47;;;2.83;;
40599;SDS011;26309;50.924;4.754;2024-02-16T03:21:40;5.80;;;3.20;;
40599;SDS011;26309;50.924;4.754;2024-02-16T03:24:06;6.93;;;2.92;;
40599;SDS011;26309;50.924;4.754;2024-02-16T03:26:32;6.28;;;2.90;;
40599;SDS011;26309;50.924;4.754;2024-02-16T03:28:57;3.60;;;2.92;;
40599;SDS011;26309;50.924;4.754;2024-02-16T03:31:23;4.13;;;2.47;;
40599;SDS011;26309;50.924;4.754;2024-02-16T03:33:50;5.50;;;3.30;;
40599;SDS011;26309;50.924;4.754;2024-02-16T03:36:19;4.68;;;3.00;;
40599;SDS011;26309;50.924;4.754;2024-02-16T03:38:45;6.88;;;2.85;;
40599;SDS011;26309;50.924;4.754;2024-02-16T03:41:15;6.28;;;2.92;;
40599;SDS011;26309;50.924;4.754;2024-02-16T03:43:44;5.03;;;3.22;;
40599;SDS011;26309;50.924;4.754;2024-02-16T03:46:10;6.18;;;3.28;;
40599;SDS011;26309;50.924;4.754;2024-02-16T03:48:36;9.05;;;3.00;;
40599;SDS011;26309;50.924;4.754;2024-02-16T03:51:03;7.38;;;3.22;;
40599;SDS011;26309;50.924;4.754;2024-02-16T03:53:29;6.22;;;3.28;;
40599;SDS011;26309;50.924;4.754;2024-02-16T03:55:55;6.15;;;3.00;;
40599;SDS011;26309;50.924;4.754;2024-02-16T03:58:21;5.90;;;3.03;;
40599;SDS011;26309;50.924;4.754;2024-02-16T04:00:47;5.55;;;3.30;;
40599;SDS011;26309;50.924;4.754;2024-02-16T04:03:18;5.07;;;3.40;;
40599;SDS011;26309;50.924;4.754;2024-02-16T04:05:43;6.15;;;2.92;;
40599;SDS011;26309;50.924;4.754;2024-02-16T04:08:10;4.50;;;2.80;;
40599;SDS011;26309;50.924;4.754;2024-02-16T04:10:36;4.35;;;2.88;;
40599;SDS011;26309;50.924;4.754;2024-02-16T04:13:02;7.60;;;3.03;;
40599;SDS011;26309;50.924;4.754;2024-02-16T04:15:28;4.63;;;2.95;;
40599;SDS011;26309;50.924;4.754;2024-02-16T04:17:54;4.40;;;2.90;;
40599;SDS011;26309;50.924;4.754;2024-02-16T04:20:20;5.95;;;2.95;;
40599;SDS011;26309;50.924;4.754;2024-02-16T04:22:46;4.75;;;2.95;;
40599;SDS011;26309;50.924;4.754;2024-02-16T04:25:13;4.95;;;2.92;;
40599;SDS011;26309;50.924;4.754;2024-02-16T04:27:38;5.72;;;3.13;;
40599;SDS011;26309;50.924;4.754;2024-02-16T04:30:05;6.78;;;3.03;;
40599;SDS011;26309;50.924;4.754;2024-02-16T04:32:31;5.78;;;3.15;;
40599;SDS011;26309;50.924;4.754;2024-02-16T04:35:00;6.15;;;3.08;;
40599;SDS011;26309;50.924;4.754;2024-02-16T04:37:26;5.25;;;2.70;;
40599;SDS011;26309;50.924;4.754;2024-02-16T04:39:52;7.60;;;3.05;;
40599;SDS011;26309;50.924;4.754;2024-02-16T04:42:18;5.53;;;2.65;;
40599;SDS011;26309;50.924;4.754;2024-02-16T04:44:44;5.60;;;3.08;;
40599;SDS011;26309;50.924;4.754;2024-02-16T04:47:10;5.35;;;3.05;;
40599;SDS011;26309;50.924;4.754;2024-02-16T04:49:36;4.80;;;3.25;;
40599;SDS011;26309;50.924;4.754;2024-02-16T04:52:02;6.93;;;3.33;;
40599;SDS011;26309;50.924;4.754;2024-02-16T04:54:28;6.43;;;3.40;;
40599;SDS011;26309;50.924;4.754;2024-02-16T04:56:54;5.07;;;3.28;;
40599;SDS011;26309;50.924;4.754;2024-02-16T04:59:20;4.47;;;2.90;;
40599;SDS011;26309;50.924;4.754;2024-02-16T05:01:46;6.88;;;3.63;;
40599;SDS011;26309;50.924;4.754;2024-02-16T05:04:12;4.03;;;3.00;;
40599;SDS011;26309;50.924;4.754;2024-02-16T05:06:42;5.25;;;2.85;;
40599;SDS011;26309;50.924;4.754;2024-02-16T05:09:12;5.85;;;2.88;;
40599;SDS011;26309;50.924;4.754;2024-02-16T05:11:44;6.03;;;3.50;;
40599;SDS011;26309;50.924;4.754;2024-02-16T05:14:11;7.45;;;3.17;;
40599;SDS011;26309;50.924;4.754;2024-02-16T05:16:37;6.47;;;3.30;;
40599;SDS011;26309;50.924;4.754;2024-02-16T05:19:07;6.05;;;3.03;;
40599;SDS011;26309;50.924;4.754;2024-02-16T05:21:33;7.55;;;3.08;;
40599;SDS011;26309;50.924;4.754;2024-02-16T05:24:00;9.15;;;3.17;;
40599;SDS011;26309;50.924;4.754;2024-02-16T05:26:26;6.72;;;3.20;;
40599;SDS011;26309;50.924;4.754;2024-02-16T05:28:52;7.68;;;3.30;;
40599;SDS011;26309;50.924;4.754;2024-02-16T05:31:18;5.47;;;3.25;;
40599;SDS011;26309;50.924;4.754;2024-02-16T05:33:44;5.78;;;3.50;;
40599;SDS011;26309;50.924;4.754;2024-02-16T05:36:12;8.88;;;3.38;;
40599;SDS011;26309;50.924;4.754;2024-02-16T05:38:43;7.13;;;3.40;;
40599;SDS011;26309;50.924;4.754;2024-02-16T05:41:09;6.10;;;3.22;;
40599;SDS011;26309;50.924;4.754;2024-02-16T05:43:36;6.82;;;3.63;;
40599;SDS011;26309;50.924;4.754;2024-02-16T05:46:03;6.75;;;3.63;;
40599;SDS011;26309;50.924;4.754;2024-02-16T05:48:33;8.23;;;3.45;;
40599;SDS011;26309;50.924;4.754;2024-02-16T05:51:02;6.30;;;3.55;;
40599;SDS011;26309;50.924;4.754;2024-02-16T05:53:30;8.35;;;3.50;;
40599;SDS011;26309;50.924;4.754;2024-02-16T05:55:56;7.00;;;3.70;;
40599;SDS011;26309;50.924;4.754;2024-02-16T05:58:23;5.45;;;3.05;;
40599;SDS011;26309;50.924;4.754;2024-02-16T06:00:50;7.70;;;3.63;;
40599;SDS011;26309;50.924;4.754;2024-02-16T06:03:16;4.50;;;3.17;;
40599;SDS011;26309;50.924;4.754;2024-02-16T06:05:42;9.48;;;3.55;;
40599;SDS011;26309;50.924;4.754;2024-02-16T06:08:11;6.57;;;3.40;;
40599;SDS011;26309;50.924;4.754;2024-02-16T06:10:37;5.97;;;3.20;;
40599;SDS011;26309;50.924;4.754;2024-02-16T06:13:04;10.57;;;3.65;;
40599;SDS011;26309;50.924;4.754;2024-02-16T06:15:31;6.03;;;3.55;;
40599;SDS011;26309;50.924;4.754;2024-02-16T06:17:59;7.57;;;3.50;;
40599;SDS011;26309;50.924;4.754;2024-02-16T06:20:26;6.35;;;3.60;;
40599;SDS011;26309;50.924;4.754;2024-02-16T06:22:52;7.22;;;3.40;;
40599;SDS011;26309;50.924;4.754;2024-02-16T06:25:18;9.40;;;3.65;;
40599;SDS011;26309;50.924;4.754;2024-02-16T06:27:46;8.70;;;3.83;;
40599;SDS011;26309;50.924;4.754;2024-02-16T06:30:12;6.43;;;3.35;;
40599;SDS011;26309;50.924;4.754;2024-02-16T06:32:38;6.97;;;3.15;;
40599;SDS011;26309;50.924;4.754;2024-02-16T06:35:08;6.65;;;3.63;;
40599;SDS011;26309;50.924;4.754;2024-02-16T06:37:34;5.65;;;3.53;;
40599;SDS011;26309;50.924;4.754;2024-02-16T06:40:00;7.10;;;3.58;;
40599;SDS011;26309;50.924;4.754;2024-02-16T06:42:26;6.22;;;3.63;;
40599;SDS011;26309;50.924;4.754;2024-02-16T06:44:52;8.00;;;3.70;;
40599;SDS011;26309;50.924;4.754;2024-02-16T06:47:18;6.35;;;3.55;;
40599;SDS011;26309;50.924;4.754;2024-02-16T06:49:44;8.02;;;3.60;;
40599;SDS011;26309;50.924;4.754;2024-02-16T06:52:11;5.45;;;3.33;;
40599;SDS011;26309;50.924;4.754;2024-02-16T06:54:37;6.30;;;3.58;;
40599;SDS011;26309;50.924;4.754;2024-02-16T06:57:03;10.77;;;3.65;;
40599;SDS011;26309;50.924;4.754;2024-02-16T06:59:29;6.05;;;3.40;;
40599;SDS011;26309;50.924;4.754;2024-02-16T07:01:55;7.72;;;3.58;;
40599;SDS011;26309;50.924;4.754;2024-02-16T07:04:21;7.05;;;3.65;;
40599;SDS011;26309;50.924;4.754;2024-02-16T07:06:47;8.18;;;3.88;;
40599;SDS011;26309;50.924;4.754;2024-02-16T07:09:16;9.77;;;3.83;;
40599;SDS011;26309;50.924;4.754;2024-02-16T07:11:41;5.97;;;3.85;;
40599;SDS011;26309;50.924;4.754;2024-02-16T07:14:08;8.48;;;3.72;;
40599;SDS011;26309;50.924;4.754;2024-02-16T07:16:34;9.45;;;4.07;;
40599;SDS011;26309;50.924;4.754;2024-02-16T07:19:00;11.90;;;4.30;;
40599;SDS011;26309;50.924;4.754;2024-02-16T07:21:27;13.07;;;3.70;;
40599;SDS011;26309;50.924;4.754;2024-02-16T07:23:52;9.70;;;4.50;;
40599;SDS011;26309;50.924;4.754;2024-02-16T07:26:18;8.80;;;4.30;;
40599;SDS011;26309;50.924;4.754;2024-02-16T07:28:44;5.72;;;3.70;;
40599;SDS011;26309;50.924;4.754;2024-02-16T07:31:10;8.35;;;4.05;;
40599;SDS011;26309;50.924;4.754;2024-02-16T07:33:36;10.10;;;3.88;;
40599;SDS011;26309;50.924;4.754;2024-02-16T07:36:02;8.48;;;4.10;;
40599;SDS011;26309;50.924;4.754;2024-02-16T07:38:30;6.07;;;3.58;;
40599;SDS011;26309;50.924;4.754;2024-02-16T07:40:56;9.63;;;4.47;;
40599;SDS011;26309;50.924;4.754;2024-02-16T07:43:22;9.38;;;4.00;;
40599;SDS011;26309;50.924;4.754;2024-02-16T07:45:49;9.88;;;3.67;;
40599;SDS011;26309;50.924;4.754;2024-02-16T07:48:20;7.90;;;3.72;;
40599;SDS011;26309;50.924;4.754;2024-02-16T07:50:46;4.95;;;3.47;;
40599;SDS011;26309;50.924;4.754;2024-02-16T07:53:13;8.20;;;3.95;;
40599;SDS011;26309;50.924;4.754;2024-02-16T07:55:39;7.60;;;3.83;;
40599;SDS011;26309;50.924;4.754;2024-02-16T07:58:05;7.15;;;3.95;;
40599;SDS011;26309;50.924;4.754;2024-02-16T08:00:31;6.70;;;3.85;;
40599;SDS011;26309;50.924;4.754;2024-02-16T08:02:57;9.60;;;4.13;;
40599;SDS011;26309;50.924;4.754;2024-02-16T08:05:23;8.52;;;4.03;;
40599;SDS011;26309;50.924;4.754;2024-02-16T08:07:50;12.70;;;4.28;;
40599;SDS011;26309;50.924;4.754;2024-02-16T08:10:18;7.85;;;3.92;;
40599;SDS011;26309;50.924;4.754;2024-02-16T08:12:48;11.68;;;3.90;;
40599;SDS011;26309;50.924;4.754;2024-02-16T08:15:14;6.20;;;4.15;;
40599;SDS011;26309;50.924;4.754;2024-02-16T08:17:40;7.18;;;3.90;;
40599;SDS011;26309;50.924;4.754;2024-02-16T08:20:06;7.22;;;4.07;;
40599;SDS011;26309;50.924;4.754;2024-02-16T08:22:32;9.68;;;4.50;;
40599;SDS011;26309;50.924;4.754;2024-02-16T08:24:59;8.48;;;4.15;;
40599;SDS011;26309;50.924;4.754;2024-02-16T08:27:25;7.20;;;4.03;;
40599;SDS011;26309;50.924;4.754;2024-02-16T08:29:51;10.57;;;4.40;;
40599;SDS011;26309;50.924;4.754;2024-02-16T08:32:17;4.97;;;4.07;;
40599;SDS011;26309;50.924;4.754;2024-02-16T08:34:45;8.93;;;4.57;;
40599;SDS011;26309;50.924;4.754;2024-02-16T08:37:13;9.52;;;4.78;;
40599;SDS011;26309;50.924;4.754;2024-02-16T08:39:39;13.07;;;4.93;;
40599;SDS011;26309;50.924;4.754;2024-02-16T08:42:07;7.70;;;4.88;;
40599;SDS011;26309;50.924;4.754;2024-02-16T08:44:39;11.23;;;4.65;;
40599;SDS011;26309;50.924;4.754;2024-02-16T08:47:07;11.25;;;5.90;;
40599;SDS011;26309;50.924;4.754;2024-02-16T08:49:33;12.25;;;5.28;;
40599;SDS011;26309;50.924;4.754;2024-02-16T08:51:59;17.20;;;5.72;;
40599;SDS011;26309;50.924;4.754;2024-02-16T08:54:25;12.00;;;5.00;;
40599;SDS011;26309;50.924;4.754;2024-02-16T08:56:52;10.80;;;5.57;;
40599;SDS011;26309;50.924;4.754;2024-02-16T08:59:18;8.10;;;5.47;;
40599;SDS011;26309;50.924;4.754;2024-02-16T09:01:44;8.40;;;5.07;;
40599;SDS011;26309;50.924;4.754;2024-02-16T09:04:11;15.43;;;5.57;;
40599;SDS011;26309;50.924;4.754;2024-02-16T09:06:37;11.55;;;5.47;;
40599;SDS011;26309;50.924;4.754;2024-02-16T09:09:04;11.80;;;5.10;;
40599;SDS011;26309;50.924;4.754;2024-02-16T09:11:32;11.25;;;5.18;;
40599;SDS011;26309;50.924;4.754;2024-02-16T09:13:59;15.50;;;5.43;;
40599;SDS011;26309;50.924;4.754;2024-02-16T09:16:25;10.57;;;5.78;;
40599;SDS011;26309;50.924;4.754;2024-02-16T09:18:51;8.70;;;5.15;;
40599;SDS011;26309;50.924;4.754;2024-02-16T09:21:17;11.82;;;5.13;;
40599;SDS011;26309;50.924;4.754;2024-02-16T09:23:43;9.52;;;4.97;;
40599;SDS011;26309;50.924;4.754;2024-02-16T09:26:09;11.80;;;5.28;;
40599;SDS011;26309;50.924;4.754;2024-02-16T09:28:41;10.88;;;5.07;;
40599;SDS011;26309;50.924;4.754;2024-02-16T09:31:07;8.40;;;5.05;;
40599;SDS011;26309;50.924;4.754;2024-02-16T09:33:33;16.73;;;5.32;;
40599;SDS011;26309;50.924;4.754;2024-02-16T09:35:59;6.50;;;4.88;;
40599;SDS011;26309;50.924;4.754;2024-02-16T09:38:25;9.30;;;5.57;;
40599;SDS011;26309;50.924;4.754;2024-02-16T09:40:50;9.68;;;5.07;;
40599;SDS011;26309;50.924;4.754;2024-02-16T09:43:24;10.25;;;5.63;;
40599;SDS011;26309;50.924;4.754;2024-02-16T09:45:57;13.48;;;5.28;;
40599;SDS011;26309;50.924;4.754;2024-02-16T09:48:28;10.93;;;5.82;;
40599;SDS011;26309;50.924;4.754;2024-02-16T09:50:54;10.18;;;5.13;;
40599;SDS011;26309;50.924;4.754;2024-02-16T09:53:24;12.68;;;5.60;;
40599;SDS011;26309;50.924;4.754;2024-02-16T09:55:54;14.10;;;5.63;;
40599;SDS011;26309;50.924;4.754;2024-02-16T09:58:20;9.50;;;5.60;;
40599;SDS011;26309;50.924;4.754;2024-02-16T10:00:53;12.02;;;5.85;;
40599;SDS011;26309;50.924;4.754;2024-02-16T10:05:50;11.43;;;5.93;;
40599;SDS011;26309;50.924;4.754;2024-02-16T10:08:17;11.73;;;6.13;;
40599;SDS011;26309;50.924;4.754;2024-02-16T10:10:42;10.20;;;5.57;;
40599;SDS011;26309;50.924;4.754;2024-02-16T10:13:08;14.15;;;5.60;;
40599;SDS011;26309;50.924;4.754;2024-02-16T10:15:36;9.88;;;5.82;;
40599;SDS011;26309;50.924;4.754;2024-02-16T10:20:29;11.65;;;6.32;;
40599;SDS011;26309;50.924;4.754;2024-02-16T10:23:06;18.15;;;7.07;;
40599;SDS011;26309;50.924;4.754;2024-02-16T10:25:37;10.95;;;6.63;;
40599;SDS011;26309;50.924;4.754;2024-02-16T10:30:34;10.10;;;6.57;;
40599;SDS011;26309;50.924;4.754;2024-02-16T10:33:03;16.00;;;7.45;;
40599;SDS011;26309;50.924;4.754;2024-02-16T10:35:37;14.65;;;7.05;;
40599;SDS011;26309;50.924;4.754;2024-02-16T10:38:04;15.38;;;7.10;;
40599;SDS011;26309;50.924;4.754;2024-02-16T10:40:41;13.57;;;7.10;;
40599;SDS011;26309;50.924;4.754;2024-02-16T10:43:07;19.00;;;7.03;;
40599;SDS011;26309;50.924;4.754;2024-02-16T10:45:36;18.77;;;7.45;;
40599;SDS011;26309;50.924;4.754;2024-02-16T10:48:03;14.15;;;7.10;;
40599;SDS011;26309;50.924;4.754;2024-02-16T10:50:31;13.55;;;6.97;;
40599;SDS011;26309;50.924;4.754;2024-02-16T10:53:15;19.05;;;7.70;;
40599;SDS011;26309;50.924;4.754;2024-02-16T10:55:51;17.95;;;7.95;;
40599;SDS011;26309;50.924;4.754;2024-02-16T10:58:18;15.98;;;8.00;;
40599;SDS011;26309;50.924;4.754;2024-02-16T11:03:16;13.95;;;7.63;;
40599;SDS011;26309;50.924;4.754;2024-02-16T11:05:43;16.05;;;7.55;;
40599;SDS011;26309;50.924;4.754;2024-02-16T11:08:12;18.10;;;8.40;;
40599;SDS011;26309;50.924;4.754;2024-02-16T11:11:01;17.52;;;7.85;;
40599;SDS011;26309;50.924;4.754;2024-02-16T11:13:34;16.15;;;7.55;;
40599;SDS011;26309;50.924;4.754;2024-02-16T11:16:07;17.48;;;7.80;;
40599;SDS011;26309;50.924;4.754;2024-02-16T11:18:38;13.50;;;8.02;;
40599;SDS011;26309;50.924;4.754;2024-02-16T11:21:05;18.17;;;7.82;;
40599;SDS011;26309;50.924;4.754;2024-02-16T11:23:35;17.48;;;7.78;;
40599;SDS011;26309;50.924;4.754;2024-02-16T11:26:05;23.05;;;8.43;;
40599;SDS011;26309;50.924;4.754;2024-02-16T11:28:36;12.23;;;7.82;;
40599;SDS011;26309;50.924;4.754;2024-02-16T11:31:05;15.02;;;7.65;;
40599;SDS011;26309;50.924;4.754;2024-02-16T11:33:33;12.82;;;7.75;;
40599;SDS011;26309;50.924;4.754;2024-02-16T11:36:00;17.65;;;7.72;;
40599;SDS011;26309;50.924;4.754;2024-02-16T11:38:33;16.00;;;7.80;;
40599;SDS011;26309;50.924;4.754;2024-02-16T11:41:00;18.60;;;8.40;;
40599;SDS011;26309;50.924;4.754;2024-02-16T11:43:30;17.80;;;7.80;;
40599;SDS011;26309;50.924;4.754;2024-02-16T11:46:10;16.65;;;7.68;;
40599;SDS011;26309;50.924;4.754;2024-02-16T11:48:39;11.23;;;7.35;;
40599;SDS011;26309;50.924;4.754;2024-02-16T11:51:06;16.08;;;7.88;;
40599;SDS011;26309;50.924;4.754;2024-02-16T11:53:32;16.35;;;8.68;;
40599;SDS011;26309;50.924;4.754;2024-02-16T11:55:59;15.77;;;7.72;;
40599;SDS011;26309;50.924;4.754;2024-02-16T11:58:25;18.55;;;8.32;;
40599;SDS011;26309;50.924;4.754;2024-02-16T12:00:52;14.90;;;8.95;;
40599;SDS011;26309;50.924;4.754;2024-02-16T12:03:21;14.63;;;8.60;;
40599;SDS011;26309;50.924;4.754;2024-02-16T12:08:18;17.02;;;9.25;;
40599;SDS011;26309;50.924;4.754;2024-02-16T12:10:46;13.80;;;8.52;;
40599;SDS011;26309;50.924;4.754;2024-02-16T12:13:19;15.55;;;8.80;;
40599;SDS011;26309;50.924;4.754;2024-02-16T12:15:50;17.65;;;9.20;;
40599;SDS011;26309;50.924;4.754;2024-02-16T12:21:00;18.67;;;9.65;;
40599;SDS011;26309;50.924;4.754;2024-02-16T12:23:27;15.50;;;9.55;;
40599;SDS011;26309;50.924;4.754;2024-02-16T12:25:54;17.52;;;9.95;;
40599;SDS011;26309;50.924;4.754;2024-02-16T12:28:24;13.50;;;9.98;;
40599;SDS011;26309;50.924;4.754;2024-02-16T12:30:53;14.25;;;9.48;;
40599;SDS011;26309;50.924;4.754;2024-02-16T12:33:19;18.10;;;10.35;;
40599;SDS011;26309;50.924;4.754;2024-02-16T12:35:46;17.92;;;10.98;;
40599;SDS011;26309;50.924;4.754;2024-02-16T12:38:12;13.70;;;9.48;;
40599;SDS011;26309;50.924;4.754;2024-02-16T12:40:37;13.95;;;9.35;;
40599;SDS011;26309;50.924;4.754;2024-02-16T12:43:03;12.13;;;8.82;;
40599;SDS011;26309;50.924;4.754;2024-02-16T12:45:29;11.65;;;9.32;;
40599;SDS011;26309;50.924;4.754;2024-02-16T12:47:56;15.27;;;8.68;;
40599;SDS011;26309;50.924;4.754;2024-02-16T12:50:22;10.60;;;8.80;;
40599;SDS011;26309;50.924;4.754;2024-02-16T12:52:48;10.73;;;8.38;;
40599;SDS011;26309;50.924;4.754;2024-02-16T12:55:14;12.52;;;9.07;;
40599;SDS011;26309;50.924;4.754;2024-02-16T12:57:41;9.82;;;8.05;;
40599;SDS011;26309;50.924;4.754;2024-02-16T13:00:07;10.18;;;8.25;;
40599;SDS011;26309;50.924;4.754;2024-02-16T13:02:33;10.07;;;8.30;;
40599;SDS011;26309;50.924;4.754;2024-02-16T13:04:59;8.63;;;7.40;;
40599;SDS011;26309;50.924;4.754;2024-02-16T13:07:25;8.35;;;7.25;;
40599;SDS011;26309;50.924;4.754;2024-02-16T13:09:51;8.95;;;7.28;;
40599;SDS011;26309;50.924;4.754;2024-02-16T13:12:17;9.60;;;7.78;;
40599;SDS011;26309;50.924;4.754;2024-02-16T13:14:45;12.60;;;8.43;;
40599;SDS011;26309;50.924;4.754;2024-02-16T13:17:11;9.18;;;7.60;;
40599;SDS011;26309;50.924;4.754;2024-02-16T13:19:41;10.00;;;8.40;;
40599;SDS011;26309;50.924;4.754;2024-02-16T13:22:07;11.07;;;8.63;;
40599;SDS011;26309;50.924;4.754;2024-02-16T13:24:33;10.82;;;8.30;;
40599;SDS011;26309;50.924;4.754;2024-02-16T13:26:59;12.85;;;8.70;;
40599;SDS011;26309;50.924;4.754;2024-02-16T13:29:29;9.82;;;8.82;;
40599;SDS011;26309;50.924;4.754;2024-02-16T13:31:55;9.68;;;8.68;;
40599;SDS011;26309;50.924;4.754;2024-02-16T13:34:20;10.82;;;9.73;;
40599;SDS011;26309;50.924;4.754;2024-02-16T13:36:46;11.38;;;10.20;;
40599;SDS011;26309;50.924;4.754;2024-02-16T13:39:12;12.05;;;10.88;;
40599;SDS011;26309;50.924;4.754;2024-02-16T13:41:39;11.65;;;10.43;;
40599;SDS011;26309;50.924;4.754;2024-02-16T13:44:05;12.07;;;10.73;;
40599;SDS011;26309;50.924;4.754;2024-02-16T13:46:31;13.07;;;10.98;;
40599;SDS011;26309;50.924;4.754;2024-02-16T13:48:57;12.93;;;11.45;;
40599;SDS011;26309;50.924;4.754;2024-02-16T13:51:24;12.50;;;11.20;;
40599;SDS011;26309;50.924;4.754;2024-02-16T13:53:49;13.05;;;11.27;;
40599;SDS011;26309;50.924;4.754;2024-02-16T13:56:16;14.82;;;11.55;;
40599;SDS011;26309;50.924;4.754;2024-02-16T13:58:45;12.73;;;11.18;;
40599;SDS011;26309;50.924;4.754;2024-02-16T14:01:12;13.73;;;11.48;;
40599;SDS011;26309;50.924;4.754;2024-02-16T14:03:40;14.00;;;12.23;;
40599;SDS011;26309;50.924;4.754;2024-02-16T14:06:06;18.17;;;14.55;;
40599;SDS011;26309;50.924;4.754;2024-02-16T14:08:34;18.25;;;14.38;;
40599;SDS011;26309;50.924;4.754;2024-02-16T14:11:03;18.27;;;15.75;;
40599;SDS011;26309;50.924;4.754;2024-02-16T14:13:29;17.98;;;16.20;;
40599;SDS011;26309;50.924;4.754;2024-02-16T14:15:55;16.65;;;14.85;;
40599;SDS011;26309;50.924;4.754;2024-02-16T14:18:21;16.90;;;15.10;;
40599;SDS011;26309;50.924;4.754;2024-02-16T14:20:47;17.30;;;15.60;;
40599;SDS011;26309;50.924;4.754;2024-02-16T14:23:13;17.20;;;15.43;;
40599;SDS011;26309;50.924;4.754;2024-02-16T14:25:39;18.45;;;15.35;;
40599;SDS011;26309;50.924;4.754;2024-02-16T14:28:05;16.20;;;14.55;;
40599;SDS011;26309;50.924;4.754;2024-02-16T14:30:38;16.08;;;14.55;;
40599;SDS011;26309;50.924;4.754;2024-02-16T14:33:05;15.85;;;14.25;;
40599;SDS011;26309;50.924;4.754;2024-02-16T14:35:30;16.50;;;14.80;;
40599;SDS011;26309;50.924;4.754;2024-02-16T14:37:57;15.40;;;13.90;;
40599;SDS011;26309;50.924;4.754;2024-02-16T14:40:24;16.20;;;14.38;;
40599;SDS011;26309;50.924;4.754;2024-02-16T14:42:50;16.38;;;14.73;;
40599;SDS011;26309;50.924;4.754;2024-02-16T14:45:16;15.27;;;13.75;;
40599;SDS011;26309;50.924;4.754;2024-02-16T14:47:46;14.65;;;13.25;;
40599;SDS011;26309;50.924;4.754;2024-02-16T14:50:13;14.93;;;13.43;;
40599;SDS011;26309;50.924;4.754;2024-02-16T14:52:39;16.30;;;14.60;;
40599;SDS011;26309;50.924;4.754;2024-02-16T14:55:06;15.82;;;14.32;;